Time;durP1;ratioP1;P1;durP2;ratioP2;P2;SDS_P1;SDS_P2;PMS_P1;PMS_P2;Temp;Humidity;BMP_temperature;BMP_pressure;BME280_temperature;BME280_humidity;BME280_pressure;Samples;Min_cycle;Max_cycle;Signal;HPM_P1;HPM_P2
2023/07/04 00:03:56;;;;;;;19.5;12.2;;;;;;;19.47;69.81;;;;;
2023/07/04 00:13:56;;;;;;;19.5;12.2;;;;;;;19.4;70.27;;;;;
2023/07/04 00:23:56;;;;;;;17.4;11.7;;;;;;;19.37;69.49;;;;;
2023/07/04 00:33:56;;;;;;;17.4;11.7;;;;;;;19.35;69.4;;;;;
2023/07/04 00:44:58;;;;;;;17.4;11.7;;;;;;;19.32;69.35;;;;;
2023/07/04 00:55:58;;;;;;;16.1;12;;;;;;;19.32;68.03;;;;;
2023/07/04 01:05:56;;;;;;;16.1;12;;;;;;;19.26;68.44;;;;;
2023/07/04 01:15:56;;;;;;;16.1;12;;;;;;;19.11;68.53;;;;;
2023/07/04 01:26:56;;;;;;;14.8;12.1;;;;;;;18.92;70.47;;;;;
2023/07/04 01:36:56;;;;;;;14.8;12.1;;;;;;;18.83;70.82;;;;;
2023/07/04 01:46:56;;;;;;;14.8;12.1;;;;;;;18.69;72.81;;;;;
2023/07/04 01:57:57;;;;;;;17.7;12.2;;;;;;;18.71;72.4;;;;;
2023/07/04 02:08:56;;;;;;;17.7;12.2;;;;;;;18.57;72.71;;;;;
2023/07/04 02:18:56;;;;;;;17.7;12.2;;;;;;;18.52;73.69;;;;;
2023/07/04 02:29:56;;;;;;;18.5;11.3;;;;;;;18.51;74.09;;;;;
2023/07/04 02:39:59;;;;;;;18.5;11.3;;;;;;;18.5;73.96;;;;;
2023/07/04 02:50:59;;;;;;;18.5;11.3;;;;;;;18.52;72.31;;;;;
2023/07/04 03:01:59;;;;;;;17.1;11.7;;;;;;;18.45;73.01;;;;;
2023/07/04 03:12:59;;;;;;;17.1;11.7;;;;;;;18.29;73.59;;;;;
2023/07/04 03:22:59;;;;;;;17.1;11.7;;;;;;;18.22;74.39;;;;;
2023/07/04 03:33:59;;;;;;;16.1;12.1;;;;;;;18.24;75.8;;;;;
2023/07/04 03:44:59;;;;;;;16.1;12.1;;;;;;;18.4;76.06;;;;;
2023/07/04 03:55:59;;;;;;;22.4;12.3;;;;;;;18.58;75.38;;;;;
2023/07/04 04:06:59;;;;;;;22.4;12.3;;;;;;;18.99;74.7;;;;;
2023/07/04 04:17:59;;;;;;;22.4;12.3;;;;;;;19.33;72.35;;;;;
2023/07/04 04:28:59;;;;;;;16.8;11.8;;;;;;;19.59;71.14;;;;;
2023/07/04 04:39:01;;;;;;;16.8;11.8;;;;;;;19.79;70.57;;;;;
2023/07/04 04:50:00;;;;;;;16.8;11.8;;;;;;;20.06;70.3;;;;;
2023/07/04 05:00:00;;;;;;;19.1;11.2;;;;;;;20.58;69.64;;;;;
2023/07/04 05:09:59;;;;;;;19.1;11.2;;;;;;;20.58;67.97;;;;;
2023/07/04 05:20:59;;;;;;;19.1;11.2;;;;;;;20.93;67.14;;;;;
2023/07/04 05:31:59;;;;;;;18.4;12;;;;;;;21.27;67.6;;;;;
2023/07/04 05:41:59;;;;;;;18.4;12;;;;;;;21.91;66;;;;;
2023/07/04 05:51:59;;;;;;;18.4;12;;;;;;;22.22;64.26;;;;;
2023/07/04 06:02:59;;;;;;;17.8;13.2;;;;;;;22.19;65.08;;;;;
2023/07/04 06:12:59;;;;;;;17.8;13.2;;;;;;;22.25;64.88;;;;;
2023/07/04 06:23:59;;;;;;;19.3;12.1;;;;;;;22.59;64.99;;;;;
2023/07/04 06:34:00;;;;;;;19.3;12.1;;;;;;;22.69;64.31;;;;;
2023/07/04 06:43:59;;;;;;;19.3;12.1;;;;;;;22.7;61.57;;;;;
2023/07/04 06:54:59;;;;;;;17.8;12.1;;;;;;;23.37;61.08;;;;;
2023/07/04 07:05:59;;;;;;;17.8;12.1;;;;;;;23.86;61.64;;;;;
2023/07/04 07:15:59;;;;;;;17.8;12.1;;;;;;;24.04;59.58;;;;;
2023/07/04 07:25:59;;;;;;;16.3;10.3;;;;;;;24.08;59.08;;;;;
2023/07/04 07:36:59;;;;;;;16.3;10.3;;;;;;;24.36;58.45;;;;;
2023/07/04 07:47:59;;;;;;;16.3;10.3;;;;;;;24.34;56.19;;;;;
2023/07/04 07:57:59;;;;;;;15.3;10.4;;;;;;;24.22;49.77;;;;;
2023/07/04 08:08:59;;;;;;;15.3;10.4;;;;;;;24.67;47.39;;;;;
2023/07/04 08:19:59;;;;;;;15.3;10.4;;;;;;;24.85;46.55;;;;;
2023/07/04 08:30:59;;;;;;;11.8;7.6;;;;;;;24.99;46.05;;;;;
2023/07/04 08:40:59;;;;;;;11.8;7.6;;;;;;;25.07;47.77;;;;;
2023/07/04 08:50:59;;;;;;;11.8;7.6;;;;;;;25.21;46.58;;;;;
2023/07/04 09:00:59;;;;;;;14.2;7.1;;;;;;;25.49;47.96;;;;;
2023/07/04 09:11:59;;;;;;;14.2;7.1;;;;;;;25.64;45.08;;;;;
2023/07/04 09:22:59;;;;;;;14.2;7.1;;;;;;;25.97;45.01;;;;;
2023/07/04 09:32:59;;;;;;;11.7;6.7;;;;;;;25.97;44.99;;;;;
2023/07/04 09:43:59;;;;;;;11.7;6.7;;;;;;;25.92;44.41;;;;;
2023/07/04 09:53:59;;;;;;;10.3;5.5;;;;;;;25.9;42.69;;;;;
2023/07/04 10:03:59;;;;;;;10.3;5.5;;;;;;;26.04;44.24;;;;;
2023/07/04 10:13:59;;;;;;;10.3;5.5;;;;;;;26.05;42.62;;;;;
2023/07/04 10:24:00;;;;;;;7.6;4.2;;;;;;;26.5;42.53;;;;;
2023/07/04 10:34:59;;;;;;;7.6;4.2;;;;;;;26.6;43.66;;;;;
2023/07/04 10:44:59;;;;;;;7.6;4.2;;;;;;;26.47;42.18;;;;;
2023/07/04 10:55:59;;;;;;;10.4;4.4;;;;;;;26.32;42.04;;;;;
2023/07/04 11:06:59;;;;;;;10.4;4.4;;;;;;;26.63;42.35;;;;;
2023/07/04 11:16:59;;;;;;;10.4;4.4;;;;;;;26.75;41.74;;;;;
2023/07/04 11:26:59;;;;;;;11.6;7.5;;;;;;;26.75;38.43;;;;;
2023/07/04 11:38:02;;;;;;;11.6;7.5;;;;;;;26.79;39.07;;;;;
2023/07/04 11:47:59;;;;;;;11.6;7.5;;;;;;;26.97;40.51;;;;;
2023/07/04 11:57:59;;;;;;;14.4;8.9;;;;;;;26.76;38.67;;;;;
2023/07/04 12:08:59;;;;;;;14.4;8.9;;;;;;;26.98;39.99;;;;;
2023/07/04 12:19:00;;;;;;;14.4;8.9;;;;;;;26.8;37.76;;;;;
2023/07/04 12:28:59;;;;;;;10.3;4.7;;;;;;;27.08;38.94;;;;;
2023/07/04 12:38:59;;;;;;;10.3;4.7;;;;;;;27.5;38.85;;;;;
2023/07/04 12:48:59;;;;;;;10.3;4.7;;;;;;;27.84;38.69;;;;;
2023/07/04 12:59:59;;;;;;;5.7;2.7;;;;;;;28.13;37.51;;;;;
2023/07/04 13:10:00;;;;;;;5.7;2.7;;;;;;;27.71;37.02;;;;;
2023/07/04 13:19:59;;;;;;;5.7;2.7;;;;;;;27.66;42.01;;;;;
2023/07/04 13:29:59;;;;;;;6.8;2.6;;;;;;;27.88;36.81;;;;;
2023/07/04 13:39:59;;;;;;;6.8;2.6;;;;;;;28.29;37.96;;;;;
2023/07/04 13:50:59;;;;;;;6.8;2.6;;;;;;;27.86;37.56;;;;;
2023/07/04 14:00:59;;;;;;;5.1;1.8;;;;;;;28.72;36.96;;;;;
2023/07/04 14:11:59;;;;;;;5.1;1.8;;;;;;;28.07;39.12;;;;;
2023/07/04 14:21:59;;;;;;;5.1;1.8;;;;;;;28.92;40.01;;;;;
2023/07/04 14:32:59;;;;;;;5.9;1.8;;;;;;;29.13;39.31;;;;;
2023/07/04 14:43:59;;;;;;;5.9;1.8;;;;;;;29.77;35.34;;;;;
2023/07/04 14:53:59;;;;;;;5.9;1.8;;;;;;;29.72;34.25;;;;;
2023/07/04 15:03:59;;;;;;;7.8;1.9;;;;;;;30.04;34.64;;;;;
2023/07/04 15:14:59;;;;;;;7.8;1.9;;;;;;;32.3;31.25;;;;;
2023/07/04 15:26:00;;;;;;;6.7;2.7;;;;;;;34.13;30.06;;;;;
2023/07/04 15:36:59;;;;;;;6.7;2.7;;;;;;;33.63;28.87;;;;;
2023/07/04 15:47:59;;;;;;;6.7;2.7;;;;;;;34.77;28.41;;;;;
2023/07/04 15:57:59;;;;;;;3.3;1.4;;;;;;;35.4;27.4;;;;;
2023/07/04 16:08:59;;;;;;;3.3;1.4;;;;;;;35.59;28.15;;;;;
2023/07/04 16:18:59;;;;;;;3.3;1.4;;;;;;;35.2;29.02;;;;;
2023/07/04 16:28:59;;;;;;;4.4;1.6;;;;;;;35.67;27.91;;;;;
2023/07/04 16:39:59;;;;;;;4.4;1.6;;;;;;;34.35;28.46;;;;;
2023/07/04 16:49:59;;;;;;;4.4;1.6;;;;;;;31.24;33.49;;;;;
2023/07/04 17:00:59;;;;;;;5.9;2.5;;;;;;;30.99;34.5;;;;;
2023/07/04 17:11:00;;;;;;;5.9;2.5;;;;;;;31.93;32.34;;;;;
2023/07/04 17:20:59;;;;;;;5.9;2.5;;;;;;;30.58;35.33;;;;;
2023/07/04 17:31:59;;;;;;;5.6;2.6;;;;;;;29.83;37.2;;;;;
2023/07/04 17:41:59;;;;;;;5.6;2.6;;;;;;;32.53;33.16;;;;;
2023/07/04 17:51:59;;;;;;;5.6;2.6;;;;;;;33.93;29.89;;;;;
2023/07/04 18:01:59;;;;;;;6.2;2.3;;;;;;;33.4;30.46;;;;;
2023/07/04 18:12:59;;;;;;;6.2;2.3;;;;;;;30.69;33.97;;;;;
2023/07/04 18:24:01;;;;;;;6.2;2.3;;;;;;;28.47;38.3;;;;;
2023/07/04 18:34:00;;;;;;;11.4;2.6;;;;;;;26.99;41.13;;;;;
2023/07/04 18:45:00;;;;;;;11.4;2.6;;;;;;;25.56;44.97;;;;;
2023/07/04 18:54:59;;;;;;;11.4;2.6;;;;;;;24.51;47.59;;;;;
2023/07/04 19:04:59;;;;;;;7.3;3.5;;;;;;;23.61;52.41;;;;;
2023/07/04 19:15:59;;;;;;;7.3;3.5;;;;;;;22.86;58.36;;;;;
2023/07/04 19:25:59;;;;;;;5.7;3.5;;;;;;;22.44;57.6;;;;;
2023/07/04 19:35:59;;;;;;;5.7;3.5;;;;;;;22.11;59.47;;;;;
2023/07/04 19:45:59;;;;;;;5.7;3.5;;;;;;;21.77;61.67;;;;;
2023/07/04 19:56:59;;;;;;;7.9;4.3;;;;;;;21.27;63.65;;;;;
2023/07/04 20:05:40;;;;;;;7.9;4.3;;;;;;;21.01;61.9;;;;;
2023/07/04 20:15:40;;;;;;;7.9;4.3;;;;;;;20.78;64.55;;;;;
2023/07/04 20:25:40;;;;;;;7.9;4.9;;;;;;;20.62;65.07;;;;;
2023/07/04 20:35:40;;;;;;;7.9;4.9;;;;;;;20.3;66.52;;;;;
2023/07/04 20:45:40;;;;;;;7.9;4.9;;;;;;;20.06;66.87;;;;;
2023/07/04 20:56:40;;;;;;;14;9.3;;;;;;;19.69;66.03;;;;;
2023/07/04 21:06:40;;;;;;;14;9.3;;;;;;;19.33;65.85;;;;;
2023/07/04 21:16:40;;;;;;;14;9.3;;;;;;;18.97;67.86;;;;;
2023/07/04 21:26:40;;;;;;;15;9.1;;;;;;;18.71;68.1;;;;;
2023/07/04 21:37:40;;;;;;;15;9.1;;;;;;;18.41;70.22;;;;;
2023/07/04 21:48:40;;;;;;;15;9.1;;;;;;;18.15;70.85;;;;;
2023/07/04 21:58:40;;;;;;;11.1;8;;;;;;;17.91;70.45;;;;;
2023/07/04 22:08:40;;;;;;;11.1;8;;;;;;;17.74;74.29;;;;;
2023/07/04 22:19:40;;;;;;;11.1;8;;;;;;;17.63;73.71;;;;;
2023/07/04 22:29:40;;;;;;;17.3;13.1;;;;;;;17.53;75.3;;;;;
2023/07/04 22:40:40;;;;;;;17.3;13.1;;;;;;;17.46;74.85;;;;;
2023/07/04 22:51:40;;;;;;;17.3;13.1;;;;;;;17.45;76.89;;;;;
2023/07/04 23:01:40;;;;;;;17.5;12.6;;;;;;;17.43;75.33;;;;;
2023/07/04 23:11:40;;;;;;;17.5;12.6;;;;;;;17.28;75.82;;;;;
2023/07/04 23:22:41;;;;;;;17.5;12.6;;;;;;;17.11;77.84;;;;;
2023/07/04 23:32:40;;;;;;;16.1;11.7;;;;;;;16.97;77.97;;;;;
2023/07/04 23:43:40;;;;;;;16.1;11.7;;;;;;;16.77;78.19;;;;;
2023/07/04 23:54:40;;;;;;;16.1;11.7;;;;;;;16.57;78.06;;;;;
